createdAt,value
2022-12-08T00:02:28.446Z,11.02
2022-12-08T00:05:49.561Z,10.57
2022-12-08T00:09:10.967Z,11.50
2022-12-08T00:12:17.714Z,10.75
2022-12-08T00:15:20.139Z,12.55
2022-12-08T00:18:22.897Z,11.43
2022-12-08T00:21:25.354Z,10.00
2022-12-08T00:24:31.479Z,9.30
2022-12-08T00:27:33.982Z,11.13
2022-12-08T00:30:40.112Z,12.73
2022-12-08T00:33:42.605Z,15.10
2022-12-08T00:36:45.502Z,14.00
2022-12-08T00:39:48.187Z,14.55
2022-12-08T00:42:50.626Z,13.48
2022-12-08T00:45:53.156Z,12.25
2022-12-08T00:48:55.631Z,13.18
2022-12-08T00:51:58.097Z,13.40
2022-12-08T00:55:00.701Z,14.45
2022-12-08T00:58:03.172Z,19.73
2022-12-08T01:01:11.004Z,14.70
2022-12-08T01:04:18.483Z,12.85
2022-12-08T01:07:20.947Z,14.30
2022-12-08T01:10:23.580Z,13.43
2022-12-08T01:13:26.003Z,12.68
2022-12-08T01:16:31.201Z,12.25
2022-12-08T01:19:33.847Z,10.23
2022-12-08T01:22:36.267Z,12.93
2022-12-08T01:25:38.657Z,20.25
2022-12-08T01:28:41.826Z,16.65
2022-12-08T01:31:44.235Z,15.65
2022-12-08T01:34:46.823Z,13.05
2022-12-08T01:37:50.195Z,13.83
2022-12-08T01:40:52.600Z,13.85
2022-12-08T01:44:08.299Z,14.27
2022-12-08T01:47:11.719Z,11.15
2022-12-08T01:50:16.120Z,10.80
2022-12-08T01:53:30.805Z,9.90
2022-12-08T01:56:40.621Z,10.13
2022-12-08T01:59:52.389Z,11.73
2022-12-08T02:03:00.852Z,14.00
2022-12-08T02:06:04.008Z,15.43
2022-12-08T02:09:06.802Z,15.13
2022-12-08T02:12:10.325Z,13.15
2022-12-08T02:15:13.019Z,16.00
2022-12-08T02:18:35.513Z,14.73
2022-12-08T02:21:58.660Z,14.73
2022-12-08T02:25:25.365Z,12.90
2022-12-08T02:29:29.709Z,11.00
2022-12-08T02:32:53.646Z,11.07
2022-12-08T02:35:58.925Z,11.90
2022-12-08T02:39:12.009Z,11.23
2022-12-08T02:42:14.327Z,12.40
2022-12-08T02:45:26.872Z,11.13
2022-12-08T02:48:29.962Z,12.50
2022-12-08T02:51:32.435Z,12.40
2022-12-08T02:54:36.510Z,12.48
2022-12-08T02:58:00.600Z,12.07
2022-12-08T03:01:23.121Z,10.23
2022-12-08T03:04:34.633Z,10.10
2022-12-08T03:07:53.995Z,10.07
2022-12-08T03:11:00.065Z,12.70
2022-12-08T03:14:04.387Z,11.80
2022-12-08T03:17:07.219Z,12.82
2022-12-08T03:20:13.251Z,13.98
2022-12-08T03:23:17.628Z,14.57
2022-12-08T03:26:28.871Z,15.27
2022-12-08T03:29:32.545Z,13.83
2022-12-08T03:32:49.461Z,12.95
2022-12-08T03:35:53.120Z,12.80
2022-12-08T03:38:55.663Z,13.60
2022-12-08T03:41:58.939Z,15.30
2022-12-08T03:45:01.282Z,14.70
2022-12-08T03:48:03.775Z,14.88
2022-12-08T03:51:06.287Z,14.38
2022-12-08T03:54:08.746Z,14.73
2022-12-08T03:57:11.233Z,19.25
2022-12-08T04:00:15.928Z,18.83
2022-12-08T04:03:18.434Z,26.50
2022-12-08T04:06:21.761Z,31.55
2022-12-08T04:09:24.194Z,26.67
2022-12-08T04:12:26.575Z,20.83
2022-12-08T04:15:29.081Z,21.83
2022-12-08T04:18:32.304Z,19.27
2022-12-08T04:21:34.717Z,19.40
2022-12-08T04:24:37.139Z,21.85
2022-12-08T04:27:39.630Z,17.75
2022-12-08T04:30:42.242Z,14.73
2022-12-08T04:33:45.067Z,13.77
2022-12-08T04:36:47.449Z,15.43
2022-12-08T04:39:50.849Z,14.30
2022-12-08T04:42:53.260Z,15.05
2022-12-08T04:45:56.028Z,14.20
2022-12-08T04:48:58.851Z,14.55
2022-12-08T04:52:01.297Z,15.10
2022-12-08T04:55:04.467Z,15.55
2022-12-08T04:58:06.980Z,16.77
2022-12-08T05:01:09.559Z,17.07
2022-12-08T05:04:12.032Z,13.07
2022-12-08T05:07:14.420Z,11.88
2022-12-08T05:10:17.107Z,17.38
2022-12-08T05:13:19.565Z,22.23
2022-12-08T05:16:22.065Z,18.03
2022-12-08T05:19:24.766Z,18.52
2022-12-08T05:22:27.179Z,29.83
2022-12-08T05:25:29.695Z,23.27
2022-12-08T05:28:41.157Z,26.65
2022-12-08T05:31:44.607Z,34.03
2022-12-08T05:34:47.070Z,22.13
2022-12-08T05:37:49.583Z,17.48
2022-12-08T05:40:52.037Z,16.00
2022-12-08T05:43:54.501Z,15.10
2022-12-08T05:46:56.939Z,18.07
2022-12-08T05:49:59.351Z,19.55
2022-12-08T05:53:01.820Z,17.33
2022-12-08T05:56:04.395Z,17.27
2022-12-08T05:59:07.633Z,14.88
2022-12-08T06:02:10.352Z,12.73
2022-12-08T06:05:12.939Z,15.73
2022-12-08T06:08:15.585Z,14.80
2022-12-08T06:11:26.667Z,16.15
2022-12-08T06:14:29.258Z,17.95
2022-12-08T06:17:31.701Z,18.10
2022-12-08T06:20:34.784Z,17.77
2022-12-08T06:23:37.906Z,19.27
2022-12-08T06:26:41.497Z,18.42
2022-12-08T06:29:43.931Z,17.67
2022-12-08T06:32:46.373Z,16.33
2022-12-08T06:35:48.821Z,15.00
2022-12-08T06:38:51.258Z,18.60
2022-12-08T06:42:11.916Z,17.77
2022-12-08T06:45:16.712Z,20.17
2022-12-08T06:48:19.460Z,18.83
2022-12-08T06:51:23.481Z,17.92
2022-12-08T06:54:26.629Z,17.80
2022-12-08T06:57:29.145Z,33.75
2022-12-08T07:00:31.600Z,27.33
2022-12-08T07:03:34.149Z,18.27
2022-12-08T07:06:36.920Z,19.17
2022-12-08T07:09:39.480Z,17.30
2022-12-08T07:12:41.975Z,20.02
2022-12-08T07:15:44.661Z,15.65
2022-12-08T07:18:47.116Z,12.87
2022-12-08T07:21:49.820Z,16.58
2022-12-08T07:24:52.284Z,18.10
2022-12-08T07:27:54.823Z,17.88
2022-12-08T07:30:57.314Z,14.95
2022-12-08T07:34:00.536Z,13.47
2022-12-08T07:37:02.969Z,14.68
2022-12-08T07:40:07.596Z,15.60
2022-12-08T07:43:10.244Z,14.38
2022-12-08T07:46:14.661Z,14.60
2022-12-08T07:49:17.300Z,14.93
2022-12-08T07:52:19.852Z,16.88
2022-12-08T07:55:22.292Z,15.90
2022-12-08T07:58:25.777Z,16.45
2022-12-08T08:01:30.759Z,15.57
2022-12-08T08:04:33.417Z,16.57
2022-12-08T08:07:37.242Z,16.58
2022-12-08T08:10:39.833Z,17.75
2022-12-08T08:13:42.253Z,16.33
2022-12-08T08:16:47.456Z,15.93
2022-12-08T08:19:50.104Z,14.63
2022-12-08T08:22:52.659Z,15.27
2022-12-08T08:25:55.065Z,19.23
2022-12-08T08:28:57.635Z,18.60
2022-12-08T08:32:00.285Z,15.80
2022-12-08T08:35:06.242Z,16.10
2022-12-08T08:38:08.808Z,15.07
2022-12-08T08:41:11.645Z,15.68
2022-12-08T08:44:15.058Z,15.55
2022-12-08T08:47:17.487Z,15.60
2022-12-08T08:50:19.876Z,15.20
2022-12-08T08:53:22.939Z,19.15
2022-12-08T08:56:26.104Z,19.00
2022-12-08T08:59:29.042Z,16.75
2022-12-08T09:02:31.541Z,19.65
2022-12-08T09:05:34.169Z,16.77
2022-12-08T09:08:36.553Z,21.13
2022-12-08T09:11:40.714Z,15.70
2022-12-08T09:14:43.201Z,14.00
2022-12-08T09:17:45.686Z,16.95
2022-12-08T09:20:48.126Z,15.23
2022-12-08T09:23:52.869Z,16.42
2022-12-08T09:26:55.295Z,15.32
2022-12-08T09:29:57.993Z,15.00
2022-12-08T09:33:00.654Z,16.63
2022-12-08T09:36:04.043Z,17.77
2022-12-08T09:39:07.248Z,20.13
2022-12-08T09:42:10.450Z,14.75
2022-12-08T09:45:14.860Z,15.38
2022-12-08T09:48:33.408Z,16.02
2022-12-08T09:51:38.766Z,14.77
2022-12-08T09:54:41.339Z,14.77
2022-12-08T09:57:44.828Z,18.17
2022-12-08T10:00:47.632Z,45.20
2022-12-08T10:03:50.198Z,26.95
2022-12-08T10:06:52.557Z,15.27
2022-12-08T10:10:03.707Z,17.77
2022-12-08T10:13:24.481Z,19.02
2022-12-08T10:16:37.089Z,22.67
2022-12-08T10:19:40.938Z,19.65
2022-12-08T10:22:45.096Z,18.40
2022-12-08T10:25:49.946Z,16.77
2022-12-08T10:28:52.688Z,15.93
2022-12-08T10:31:59.991Z,15.88
2022-12-08T10:35:08.431Z,15.80
2022-12-08T10:38:21.645Z,17.93
2022-12-08T10:41:24.966Z,17.08
2022-12-08T10:44:27.492Z,17.30
2022-12-08T10:47:30.640Z,16.23
2022-12-08T10:50:46.434Z,21.35
2022-12-08T10:53:48.915Z,22.27
2022-12-08T10:56:55.905Z,19.05
2022-12-08T10:59:59.070Z,16.90
2022-12-08T11:03:05.340Z,14.32
2022-12-08T11:06:15.824Z,17.55
2022-12-08T11:09:18.548Z,19.77
2022-12-08T11:12:22.516Z,24.10
2022-12-08T11:15:33.290Z,21.25
2022-12-08T11:18:44.656Z,28.58
2022-12-08T11:21:47.817Z,22.58
2022-12-08T11:25:03.674Z,21.77
2022-12-08T11:28:09.886Z,19.90
2022-12-08T11:31:21.150Z,19.70
2022-12-08T11:35:02.063Z,17.92
2022-12-08T11:38:21.536Z,16.38
2022-12-08T11:41:29.054Z,16.33
2022-12-08T11:44:51.608Z,17.20
2022-12-08T11:48:21.787Z,17.58
2022-12-08T11:51:29.751Z,17.00
2022-12-08T11:54:53.469Z,15.18
2022-12-08T11:57:57.927Z,16.30
2022-12-08T12:01:01.498Z,31.30
2022-12-08T12:04:19.899Z,27.00
2022-12-08T12:07:37.772Z,19.95
2022-12-08T12:10:58.332Z,19.52
2022-12-08T12:14:21.493Z,17.90
2022-12-08T12:17:48.399Z,20.27
2022-12-08T12:20:58.370Z,49.58
2022-12-08T12:24:06.682Z,26.70
2022-12-08T12:27:23.767Z,22.35
2022-12-08T12:30:28.168Z,15.13
2022-12-08T12:33:31.472Z,16.73
2022-12-08T12:37:03.272Z,15.85
2022-12-08T12:40:28.171Z,15.25
2022-12-08T12:43:36.336Z,13.95
2022-12-08T12:46:50.888Z,16.63
2022-12-08T12:50:05.778Z,15.90
2022-12-08T12:53:37.533Z,17.90
2022-12-08T12:56:48.502Z,17.38
2022-12-08T12:59:55.826Z,15.77
2022-12-08T13:02:59.163Z,15.90
2022-12-08T13:06:02.423Z,16.08
2022-12-08T13:09:07.291Z,15.95
2022-12-08T13:12:20.268Z,18.38
2022-12-08T13:15:22.799Z,15.27
2022-12-08T13:18:28.742Z,18.13
2022-12-08T13:21:38.854Z,17.95
2022-12-08T13:24:42.274Z,18.63
2022-12-08T13:27:53.124Z,17.90
2022-12-08T13:31:02.963Z,18.55
2022-12-08T13:34:07.275Z,16.53
2022-12-08T13:37:13.710Z,19.83
2022-12-08T13:40:24.400Z,17.67
2022-12-08T13:43:47.280Z,16.35
2022-12-08T13:47:25.073Z,18.63
2022-12-08T13:57:29.992Z,15.98
2022-12-08T14:00:32.874Z,15.77
2022-12-08T14:04:12.904Z,17.25
2022-12-08T14:07:13.003Z,15.77
2022-12-08T14:10:22.598Z,16.30
2022-12-08T14:13:25.032Z,15.75
2022-12-08T14:16:37.653Z,16.13
2022-12-08T14:19:43.497Z,14.40
2022-12-08T14:22:46.728Z,15.17
2022-12-08T14:25:49.165Z,14.43
2022-12-08T14:28:51.734Z,15.85
2022-12-08T14:31:54.189Z,16.02
2022-12-08T14:35:18.870Z,19.20
2022-12-08T14:38:22.885Z,16.03
2022-12-08T14:41:32.416Z,17.23
2022-12-08T14:44:39.085Z,18.65
2022-12-08T14:47:41.691Z,16.10
2022-12-08T14:51:01.897Z,18.52
2022-12-08T14:54:14.244Z,16.63
2022-12-08T14:57:16.893Z,17.13
2022-12-08T15:00:21.074Z,20.17
2022-12-08T15:03:24.748Z,20.02
2022-12-08T15:06:27.222Z,20.08
2022-12-08T15:09:31.096Z,21.10
2022-12-08T15:12:33.573Z,19.38
2022-12-08T15:15:47.552Z,22.25
2022-12-08T15:19:02.476Z,59.80
2022-12-08T15:22:14.054Z,35.25
2022-12-08T15:25:16.536Z,56.93
2022-12-08T15:28:23.984Z,34.67
2022-12-08T15:31:29.128Z,20.98
2022-12-08T15:34:31.680Z,21.15
2022-12-08T15:37:34.128Z,18.40
2022-12-08T15:40:36.542Z,17.27
2022-12-08T15:43:38.893Z,17.70
2022-12-08T15:46:41.307Z,19.20
2022-12-08T15:49:44.099Z,19.38
2022-12-08T15:52:47.485Z,17.27
2022-12-08T15:56:19.089Z,20.00
2022-12-08T15:59:20.934Z,18.15
2022-12-08T16:02:25.241Z,17.63
2022-12-08T16:06:01.739Z,18.83
2022-12-08T16:09:06.150Z,18.98
2022-12-08T16:16:07.917Z,17.90
2022-12-08T16:19:14.240Z,18.00
2022-12-08T16:26:17.089Z,19.17
2022-12-08T16:29:11.062Z,20.30
2022-12-08T16:32:14.826Z,19.92
2022-12-08T16:35:17.476Z,18.25
2022-12-08T16:38:19.925Z,19.50
2022-12-08T16:41:40.721Z,17.65
2022-12-08T16:44:43.168Z,16.00
2022-12-08T16:47:56.585Z,14.80
2022-12-08T16:50:59.062Z,35.05
2022-12-08T16:54:01.468Z,17.05
2022-12-08T16:57:03.914Z,15.20
2022-12-08T17:00:09.126Z,13.73
2022-12-08T17:03:14.754Z,14.05
2022-12-08T17:06:18.828Z,19.70
2022-12-08T17:09:21.387Z,14.63
2022-12-08T17:12:23.883Z,18.50
2022-12-08T17:15:26.345Z,17.53
2022-12-08T17:18:29.095Z,18.35
2022-12-08T17:21:32.146Z,14.45
2022-12-08T17:24:34.612Z,14.25
2022-12-08T17:27:37.988Z,14.35
2022-12-08T17:30:40.391Z,14.37
2022-12-08T17:33:43.149Z,15.88
2022-12-08T17:36:45.648Z,14.35
2022-12-08T17:39:48.374Z,14.75
2022-12-08T17:42:50.734Z,15.38
2022-12-08T17:45:53.509Z,13.40
2022-12-08T17:48:56.290Z,10.30
2022-12-08T17:52:01.512Z,11.98
2022-12-08T17:55:04.200Z,11.57
2022-12-08T17:58:07.748Z,12.15
2022-12-08T18:01:11.289Z,12.17
2022-12-08T18:04:13.875Z,11.05
2022-12-08T18:07:16.341Z,10.63
2022-12-08T18:10:19.366Z,13.43
2022-12-08T18:13:22.021Z,12.52
2022-12-08T18:16:26.176Z,12.10
2022-12-08T18:19:28.956Z,11.23
2022-12-08T18:22:32.609Z,10.50
2022-12-08T18:25:35.906Z,10.60
2022-12-08T18:28:38.922Z,10.75
2022-12-08T18:31:41.352Z,10.23
2022-12-08T18:34:43.857Z,9.85
2022-12-08T18:37:47.076Z,12.07
2022-12-08T18:40:49.793Z,11.55
2022-12-08T18:43:53.484Z,11.90
2022-12-08T18:46:56.198Z,13.27
2022-12-08T18:50:00.200Z,14.30
2022-12-08T18:53:02.849Z,14.75
2022-12-08T18:56:06.247Z,15.10
2022-12-08T18:59:12.006Z,14.40
2022-12-08T19:02:14.982Z,13.97
2022-12-08T19:05:17.647Z,14.48
2022-12-08T19:08:20.726Z,13.15
2022-12-08T19:11:25.894Z,12.60
2022-12-08T19:14:30.441Z,11.15
2022-12-08T19:17:33.232Z,11.10
2022-12-08T19:20:36.226Z,11.35
2022-12-08T19:23:40.151Z,12.50
2022-12-08T19:26:43.273Z,11.73
2022-12-08T19:29:45.952Z,11.88
2022-12-08T19:32:50.124Z,15.00
2022-12-08T19:35:53.814Z,12.80
2022-12-08T19:39:15.081Z,10.73
2022-12-08T19:42:38.208Z,9.63
2022-12-08T19:45:40.980Z,10.10
2022-12-08T19:48:44.215Z,10.13
2022-12-08T19:51:47.011Z,10.95
2022-12-08T19:54:49.616Z,11.00
2022-12-08T19:57:52.664Z,10.38
2022-12-08T20:00:55.581Z,11.43
2022-12-08T20:03:58.228Z,12.83
2022-12-08T20:07:02.133Z,11.82
2022-12-08T20:10:07.960Z,12.18
2022-12-08T20:13:29.990Z,12.48
2022-12-08T20:16:32.837Z,11.73
2022-12-08T20:19:35.618Z,11.40
2022-12-08T20:22:38.736Z,10.27
2022-12-08T20:25:43.140Z,11.73
2022-12-08T20:28:45.963Z,11.90
2022-12-08T20:31:48.891Z,11.32
2022-12-08T20:34:52.031Z,11.53
2022-12-08T20:37:54.698Z,11.65
2022-12-08T20:40:58.516Z,12.35
2022-12-08T20:44:01.635Z,12.10
2022-12-08T20:47:04.378Z,11.35
2022-12-08T20:50:08.596Z,12.93
2022-12-08T20:53:11.578Z,16.45
2022-12-08T20:56:19.236Z,15.30
2022-12-08T20:59:21.978Z,15.73
2022-12-08T21:02:28.012Z,14.23
2022-12-08T21:05:31.044Z,13.83
2022-12-08T21:08:33.674Z,15.38
2022-12-08T21:11:36.546Z,16.83
2022-12-08T21:14:40.107Z,12.52
2022-12-08T21:17:42.709Z,11.80
2022-12-08T21:20:45.500Z,12.30
2022-12-08T21:23:48.092Z,12.05
2022-12-08T21:26:50.730Z,12.38
2022-12-08T21:29:53.246Z,16.40
2022-12-08T21:32:55.967Z,16.77
2022-12-08T21:36:03.183Z,14.33
2022-12-08T21:39:11.305Z,13.38
2022-12-08T21:42:34.220Z,14.20
2022-12-08T21:45:37.189Z,13.05
2022-12-08T21:48:39.761Z,14.65
2022-12-08T21:51:43.186Z,12.83
2022-12-08T21:54:45.810Z,12.63
2022-12-08T21:57:48.247Z,12.43
2022-12-08T22:00:50.742Z,12.38
2022-12-08T22:03:53.462Z,13.13
2022-12-08T22:06:56.132Z,11.57
2022-12-08T22:09:58.528Z,12.32
2022-12-08T22:13:00.912Z,13.57
2022-12-08T22:16:08.091Z,12.55
2022-12-08T22:19:10.695Z,13.23
2022-12-08T22:22:16.237Z,12.23
2022-12-08T22:25:18.785Z,12.63
2022-12-08T22:28:21.163Z,12.90
2022-12-08T22:31:23.735Z,12.75
2022-12-08T22:34:26.250Z,13.68
2022-12-08T22:37:28.604Z,12.90
2022-12-08T22:40:31.141Z,13.80
2022-12-08T22:43:34.035Z,12.88
2022-12-08T22:46:36.512Z,12.07
2022-12-08T22:49:38.973Z,15.40
2022-12-08T22:52:41.687Z,13.27
2022-12-08T22:55:44.752Z,14.40
2022-12-08T22:58:48.642Z,14.43
2022-12-08T23:01:51.053Z,14.30
2022-12-08T23:04:56.970Z,14.60
2022-12-08T23:07:59.950Z,13.53
2022-12-08T23:11:02.533Z,17.17
2022-12-08T23:14:04.952Z,18.38
2022-12-08T23:17:08.213Z,17.92
2022-12-08T23:20:11.834Z,16.55
2022-12-08T23:23:14.447Z,13.33
2022-12-08T23:26:19.019Z,17.15
2022-12-08T23:29:21.786Z,16.50
2022-12-08T23:32:24.746Z,18.00
2022-12-08T23:35:27.474Z,15.70
2022-12-08T23:38:30.321Z,16.83
2022-12-08T23:41:33.198Z,17.20
2022-12-08T23:44:35.772Z,17.25
2022-12-08T23:47:38.266Z,17.08
2022-12-08T23:50:40.640Z,17.55
2022-12-08T23:53:44.074Z,15.63
2022-12-08T23:56:46.773Z,17.23
2022-12-08T23:59:49.344Z,17.98
